sensor_id;sensor_type;location;lat;lon;timestamp;temperature;humidity
13433;DHT22;6789;47.678;9.158;2023-04-03T00:01:37;6.30;99.90
13433;DHT22;6789;47.678;9.158;2023-04-03T00:06:29;6.00;99.90
13433;DHT22;6789;47.678;9.158;2023-04-03T00:11:21;5.80;99.90
13433;DHT22;6789;47.678;9.158;2023-04-03T00:16:13;5.60;99.90
13433;DHT22;6789;47.678;9.158;2023-04-03T00:21:05;5.60;99.90
13433;DHT22;6789;47.678;9.158;2023-04-03T00:25:58;5.60;99.90
13433;DHT22;6789;47.678;9.158;2023-04-03T00:30:51;5.60;99.90
13433;DHT22;6789;47.678;9.158;2023-04-03T00:35:43;5.60;99.90
13433;DHT22;6789;47.678;9.158;2023-04-03T00:40:38;5.40;99.90
13433;DHT22;6789;47.678;9.158;2023-04-03T00:45:37;5.40;99.90
13433;DHT22;6789;47.678;9.158;2023-04-03T00:50:34;5.50;99.90
13433;DHT22;6789;47.678;9.158;2023-04-03T00:55:29;5.40;99.90
13433;DHT22;6789;47.678;9.158;2023-04-03T01:00:22;5.30;99.90
13433;DHT22;6789;47.678;9.158;2023-04-03T01:05:16;5.30;99.90
13433;DHT22;6789;47.678;9.158;2023-04-03T01:10:12;5.20;99.90
13433;DHT22;6789;47.678;9.158;2023-04-03T01:15:13;5.20;99.90
13433;DHT22;6789;47.678;9.158;2023-04-03T01:25:19;5.10;99.90
13433;DHT22;6789;47.678;9.158;2023-04-03T01:30:12;5.10;99.90
13433;DHT22;6789;47.678;9.158;2023-04-03T01:35:09;5.20;99.90
13433;DHT22;6789;47.678;9.158;2023-04-03T01:40:02;5.20;99.90
13433;DHT22;6789;47.678;9.158;2023-04-03T01:44:55;5.20;99.90
13433;DHT22;6789;47.678;9.158;2023-04-03T01:49:46;5.20;99.90
13433;DHT22;6789;47.678;9.158;2023-04-03T01:54:38;5.30;99.90
13433;DHT22;6789;47.678;9.158;2023-04-03T01:59:30;5.30;99.90
13433;DHT22;6789;47.678;9.158;2023-04-03T02:04:22;5.30;99.90
13433;DHT22;6789;47.678;9.158;2023-04-03T02:09:14;5.10;99.90
13433;DHT22;6789;47.678;9.158;2023-04-03T02:14:06;5.10;99.90
13433;DHT22;6789;47.678;9.158;2023-04-03T02:18:58;4.80;99.90
13433;DHT22;6789;47.678;9.158;2023-04-03T02:23:50;4.70;99.90
13433;DHT22;6789;47.678;9.158;2023-04-03T02:28:41;4.80;99.90
13433;DHT22;6789;47.678;9.158;2023-04-03T02:33:34;4.50;99.90
13433;DHT22;6789;47.678;9.158;2023-04-03T02:38:27;4.50;99.90
13433;DHT22;6789;47.678;9.158;2023-04-03T02:43:19;4.40;99.90
13433;DHT22;6789;47.678;9.158;2023-04-03T02:48:11;4.40;99.90
13433;DHT22;6789;47.678;9.158;2023-04-03T02:53:03;4.20;99.90
13433;DHT22;6789;47.678;9.158;2023-04-03T02:57:55;4.30;99.90
13433;DHT22;6789;47.678;9.158;2023-04-03T03:02:48;4.20;99.90
13433;DHT22;6789;47.678;9.158;2023-04-03T03:07:40;4.20;99.90
13433;DHT22;6789;47.678;9.158;2023-04-03T03:12:32;4.30;99.90
13433;DHT22;6789;47.678;9.158;2023-04-03T03:17:24;4.30;99.90
13433;DHT22;6789;47.678;9.158;2023-04-03T03:22:16;4.20;99.90
13433;DHT22;6789;47.678;9.158;2023-04-03T03:27:08;4.20;99.90
13433;DHT22;6789;47.678;9.158;2023-04-03T03:32:00;4.20;99.90
13433;DHT22;6789;47.678;9.158;2023-04-03T03:36:51;4.20;99.90
13433;DHT22;6789;47.678;9.158;2023-04-03T03:41:43;4.10;99.90
13433;DHT22;6789;47.678;9.158;2023-04-03T03:46:35;4.10;99.90
13433;DHT22;6789;47.678;9.158;2023-04-03T03:51:28;4.10;99.90
13433;DHT22;6789;47.678;9.158;2023-04-03T03:56:35;4.10;99.90
13433;DHT22;6789;47.678;9.158;2023-04-03T04:01:41;4.10;99.90
13433;DHT22;6789;47.678;9.158;2023-04-03T04:06:33;4.00;99.90
13433;DHT22;6789;47.678;9.158;2023-04-03T04:11:25;4.00;99.90
13433;DHT22;6789;47.678;9.158;2023-04-03T04:16:19;3.90;99.90
13433;DHT22;6789;47.678;9.158;2023-04-03T04:21:10;3.80;99.90
13433;DHT22;6789;47.678;9.158;2023-04-03T04:26:02;3.80;99.90
13433;DHT22;6789;47.678;9.158;2023-04-03T04:30:54;3.80;99.90
13433;DHT22;6789;47.678;9.158;2023-04-03T04:35:47;3.80;99.90
13433;DHT22;6789;47.678;9.158;2023-04-03T04:40:40;3.80;99.90
13433;DHT22;6789;47.678;9.158;2023-04-03T04:45:35;3.80;99.90
13433;DHT22;6789;47.678;9.158;2023-04-03T04:50:27;3.80;99.90
13433;DHT22;6789;47.678;9.158;2023-04-03T04:55:19;3.80;99.90
13433;DHT22;6789;47.678;9.158;2023-04-03T05:00:11;3.80;99.90
13433;DHT22;6789;47.678;9.158;2023-04-03T05:05:03;3.80;99.90
13433;DHT22;6789;47.678;9.158;2023-04-03T05:09:56;3.80;99.90
13433;DHT22;6789;47.678;9.158;2023-04-03T05:14:48;3.80;99.90
13433;DHT22;6789;47.678;9.158;2023-04-03T05:19:39;3.80;99.90
13433;DHT22;6789;47.678;9.158;2023-04-03T05:24:31;3.80;99.90
13433;DHT22;6789;47.678;9.158;2023-04-03T05:29:23;3.80;99.90
13433;DHT22;6789;47.678;9.158;2023-04-03T05:34:15;3.80;99.90
13433;DHT22;6789;47.678;9.158;2023-04-03T05:39:07;3.80;99.90
13433;DHT22;6789;47.678;9.158;2023-04-03T05:44:00;3.90;99.90
13433;DHT22;6789;47.678;9.158;2023-04-03T05:48:53;3.90;99.90
13433;DHT22;6789;47.678;9.158;2023-04-03T05:53:45;4.10;99.90
13433;DHT22;6789;47.678;9.158;2023-04-03T05:58:38;4.10;99.90
13433;DHT22;6789;47.678;9.158;2023-04-03T06:03:29;4.10;99.90
13433;DHT22;6789;47.678;9.158;2023-04-03T06:08:22;4.10;99.90
13433;DHT22;6789;47.678;9.158;2023-04-03T06:13:15;4.10;99.90
13433;DHT22;6789;47.678;9.158;2023-04-03T06:18:07;4.00;99.90
13433;DHT22;6789;47.678;9.158;2023-04-03T06:22:59;4.20;99.90
13433;DHT22;6789;47.678;9.158;2023-04-03T06:28:05;4.20;99.90
13433;DHT22;6789;47.678;9.158;2023-04-03T06:33:11;4.20;99.90
13433;DHT22;6789;47.678;9.158;2023-04-03T06:38:04;4.30;99.90
13433;DHT22;6789;47.678;9.158;2023-04-03T06:43:01;4.40;99.90
13433;DHT22;6789;47.678;9.158;2023-04-03T06:47:53;4.40;99.90
13433;DHT22;6789;47.678;9.158;2023-04-03T06:52:45;4.40;99.90
13433;DHT22;6789;47.678;9.158;2023-04-03T06:57:41;4.50;99.90
13433;DHT22;6789;47.678;9.158;2023-04-03T07:02:40;4.40;99.90
13433;DHT22;6789;47.678;9.158;2023-04-03T07:07:32;4.50;99.90
13433;DHT22;6789;47.678;9.158;2023-04-03T07:12:34;4.40;99.90
13433;DHT22;6789;47.678;9.158;2023-04-03T07:17:42;4.50;99.90
13433;DHT22;6789;47.678;9.158;2023-04-03T07:22:48;4.70;99.90
13433;DHT22;6789;47.678;9.158;2023-04-03T07:27:40;4.60;99.90
13433;DHT22;6789;47.678;9.158;2023-04-03T07:32:46;4.70;99.90
13433;DHT22;6789;47.678;9.158;2023-04-03T07:37:52;4.80;99.90
13433;DHT22;6789;47.678;9.158;2023-04-03T07:42:59;4.70;99.90
13433;DHT22;6789;47.678;9.158;2023-04-03T07:47:53;4.70;99.90
13433;DHT22;6789;47.678;9.158;2023-04-03T07:52:47;5.10;99.90
13433;DHT22;6789;47.678;9.158;2023-04-03T07:57:40;4.90;99.90
13433;DHT22;6789;47.678;9.158;2023-04-03T08:02:33;4.90;99.90
13433;DHT22;6789;47.678;9.158;2023-04-03T08:07:29;5.10;99.90
13433;DHT22;6789;47.678;9.158;2023-04-03T08:12:22;5.00;99.90
13433;DHT22;6789;47.678;9.158;2023-04-03T08:17:28;5.20;99.90
13433;DHT22;6789;47.678;9.158;2023-04-03T08:22:23;5.20;99.90
13433;DHT22;6789;47.678;9.158;2023-04-03T08:27:14;5.30;99.90
13433;DHT22;6789;47.678;9.158;2023-04-03T08:32:07;5.30;99.90
13433;DHT22;6789;47.678;9.158;2023-04-03T08:36:58;5.20;99.90
13433;DHT22;6789;47.678;9.158;2023-04-03T08:41:50;5.50;99.90
13433;DHT22;6789;47.678;9.158;2023-04-03T08:52:14;5.40;99.90
13433;DHT22;6789;47.678;9.158;2023-04-03T08:57:10;5.70;99.90
13433;DHT22;6789;47.678;9.158;2023-04-03T09:02:18;6.10;99.90
13433;DHT22;6789;47.678;9.158;2023-04-03T09:07:25;6.20;99.90
13433;DHT22;6789;47.678;9.158;2023-04-03T09:12:38;5.80;99.90
13433;DHT22;6789;47.678;9.158;2023-04-03T09:18:19;5.80;99.90
13433;DHT22;6789;47.678;9.158;2023-04-03T09:23:22;6.00;99.90
13433;DHT22;6789;47.678;9.158;2023-04-03T09:28:15;6.20;99.90
13433;DHT22;6789;47.678;9.158;2023-04-03T09:33:14;6.10;99.90
13433;DHT22;6789;47.678;9.158;2023-04-03T09:43:20;6.00;99.90
13433;DHT22;6789;47.678;9.158;2023-04-03T09:48:26;6.40;99.90
13433;DHT22;6789;47.678;9.158;2023-04-03T09:53:43;6.30;99.90
13433;DHT22;6789;47.678;9.158;2023-04-03T09:58:43;6.40;99.90
13433;DHT22;6789;47.678;9.158;2023-04-03T10:03:41;6.40;99.90
13433;DHT22;6789;47.678;9.158;2023-04-03T10:09:06;6.40;99.90
13433;DHT22;6789;47.678;9.158;2023-04-03T10:14:16;6.40;99.90
13433;DHT22;6789;47.678;9.158;2023-04-03T10:19:34;6.70;99.90
13433;DHT22;6789;47.678;9.158;2023-04-03T10:31:11;6.70;99.90
13433;DHT22;6789;47.678;9.158;2023-04-03T10:36:52;6.70;99.90
13433;DHT22;6789;47.678;9.158;2023-04-03T10:47:40;7.10;99.90
13433;DHT22;6789;47.678;9.158;2023-04-03T10:58:32;7.20;99.90
13433;DHT22;6789;47.678;9.158;2023-04-03T11:03:44;7.40;99.90
13433;DHT22;6789;47.678;9.158;2023-04-03T11:09:01;7.10;99.90
13433;DHT22;6789;47.678;9.158;2023-04-03T11:19:50;7.10;99.90
13433;DHT22;6789;47.678;9.158;2023-04-03T11:30:23;6.90;99.90
13433;DHT22;6789;47.678;9.158;2023-04-03T11:35:46;7.20;99.90
13433;DHT22;6789;47.678;9.158;2023-04-03T11:40:47;7.30;99.90
13433;DHT22;6789;47.678;9.158;2023-04-03T11:46:00;7.20;99.90
13433;DHT22;6789;47.678;9.158;2023-04-03T12:07:11;7.50;99.90
13433;DHT22;6789;47.678;9.158;2023-04-03T12:17:26;7.40;99.90
13433;DHT22;6789;47.678;9.158;2023-04-03T12:22:20;7.70;99.90
13433;DHT22;6789;47.678;9.158;2023-04-03T12:32:35;7.40;99.90
13433;DHT22;6789;47.678;9.158;2023-04-03T12:43:39;7.60;99.90
13433;DHT22;6789;47.678;9.158;2023-04-03T12:54:39;7.40;99.90
13433;DHT22;6789;47.678;9.158;2023-04-03T12:59:46;7.60;99.90
13433;DHT22;6789;47.678;9.158;2023-04-03T13:04:52;7.50;99.90
13433;DHT22;6789;47.678;9.158;2023-04-03T13:20:30;7.70;99.90
13433;DHT22;6789;47.678;9.158;2023-04-03T13:25:28;7.70;99.90
13433;DHT22;6789;47.678;9.158;2023-04-03T13:35:31;7.80;99.90
13433;DHT22;6789;47.678;9.158;2023-04-03T13:40:30;7.80;99.90
13433;DHT22;6789;47.678;9.158;2023-04-03T13:45:35;8.00;99.90
13433;DHT22;6789;47.678;9.158;2023-04-03T13:50:28;8.10;99.90
13433;DHT22;6789;47.678;9.158;2023-04-03T13:55:33;8.10;99.90
13433;DHT22;6789;47.678;9.158;2023-04-03T14:00:56;8.00;99.90
13433;DHT22;6789;47.678;9.158;2023-04-03T14:05:58;7.70;99.90
13433;DHT22;6789;47.678;9.158;2023-04-03T14:10:56;7.70;99.90
13433;DHT22;6789;47.678;9.158;2023-04-03T14:15:49;7.90;99.90
13433;DHT22;6789;47.678;9.158;2023-04-03T14:20:43;7.70;99.90
13433;DHT22;6789;47.678;9.158;2023-04-03T14:25:35;7.60;99.90
13433;DHT22;6789;47.678;9.158;2023-04-03T14:30:28;7.40;99.90
13433;DHT22;6789;47.678;9.158;2023-04-03T14:35:22;7.50;99.90
13433;DHT22;6789;47.678;9.158;2023-04-03T14:40:21;7.30;99.90
13433;DHT22;6789;47.678;9.158;2023-04-03T14:45:17;7.20;99.90
13433;DHT22;6789;47.678;9.158;2023-04-03T14:50:26;7.30;99.90
13433;DHT22;6789;47.678;9.158;2023-04-03T14:55:24;7.30;99.90
13433;DHT22;6789;47.678;9.158;2023-04-03T15:00:19;7.30;99.90
13433;DHT22;6789;47.678;9.158;2023-04-03T15:05:12;7.30;99.90
13433;DHT22;6789;47.678;9.158;2023-04-03T15:10:19;7.40;99.90
13433;DHT22;6789;47.678;9.158;2023-04-03T15:15:29;7.50;99.90
13433;DHT22;6789;47.678;9.158;2023-04-03T15:20:25;7.40;99.90
13433;DHT22;6789;47.678;9.158;2023-04-03T15:25:18;7.50;99.90
13433;DHT22;6789;47.678;9.158;2023-04-03T15:30:17;7.30;99.90
13433;DHT22;6789;47.678;9.158;2023-04-03T15:35:16;7.10;99.90
13433;DHT22;6789;47.678;9.158;2023-04-03T15:40:10;7.20;99.90
13433;DHT22;6789;47.678;9.158;2023-04-03T15:45:05;7.10;99.90
13433;DHT22;6789;47.678;9.158;2023-04-03T15:50:12;7.20;99.90
13433;DHT22;6789;47.678;9.158;2023-04-03T15:55:18;7.10;99.90
13433;DHT22;6789;47.678;9.158;2023-04-03T16:00:24;7.00;99.90
13433;DHT22;6789;47.678;9.158;2023-04-03T16:05:18;7.00;99.90
13433;DHT22;6789;47.678;9.158;2023-04-03T16:10:11;7.00;99.90
13433;DHT22;6789;47.678;9.158;2023-04-03T16:15:05;6.90;99.90
13433;DHT22;6789;47.678;9.158;2023-04-03T16:19:59;6.90;99.90
13433;DHT22;6789;47.678;9.158;2023-04-03T16:25:07;6.90;99.90
13433;DHT22;6789;47.678;9.158;2023-04-03T16:30:00;6.90;99.90
13433;DHT22;6789;47.678;9.158;2023-04-03T16:34:52;6.70;99.90
13433;DHT22;6789;47.678;9.158;2023-04-03T16:39:44;6.60;99.90
13433;DHT22;6789;47.678;9.158;2023-04-03T16:44:37;6.40;99.90
13433;DHT22;6789;47.678;9.158;2023-04-03T16:49:30;6.40;99.90
13433;DHT22;6789;47.678;9.158;2023-04-03T16:54:25;6.50;99.90
13433;DHT22;6789;47.678;9.158;2023-04-03T16:59:17;6.40;99.90
13433;DHT22;6789;47.678;9.158;2023-04-03T17:04:09;6.40;99.90
13433;DHT22;6789;47.678;9.158;2023-04-03T17:09:00;6.50;99.90
13433;DHT22;6789;47.678;9.158;2023-04-03T17:13:53;6.30;99.90
13433;DHT22;6789;47.678;9.158;2023-04-03T17:18:46;6.30;99.90
13433;DHT22;6789;47.678;9.158;2023-04-03T17:23:59;6.30;99.90
13433;DHT22;6789;47.678;9.158;2023-04-03T17:28:53;6.20;99.90
13433;DHT22;6789;47.678;9.158;2023-04-03T17:33:45;6.20;99.90
13433;DHT22;6789;47.678;9.158;2023-04-03T17:38:51;6.10;99.90
13433;DHT22;6789;47.678;9.158;2023-04-03T17:43:50;6.10;99.90
13433;DHT22;6789;47.678;9.158;2023-04-03T17:48:43;6.10;99.90
13433;DHT22;6789;47.678;9.158;2023-04-03T17:53:34;6.00;99.90
13433;DHT22;6789;47.678;9.158;2023-04-03T17:58:30;5.90;99.90
13433;DHT22;6789;47.678;9.158;2023-04-03T18:03:22;5.90;99.90
13433;DHT22;6789;47.678;9.158;2023-04-03T18:08:27;5.90;99.90
13433;DHT22;6789;47.678;9.158;2023-04-03T18:13:24;5.80;99.90
13433;DHT22;6789;47.678;9.158;2023-04-03T18:18:19;5.90;99.90
13433;DHT22;6789;47.678;9.158;2023-04-03T18:23:12;5.80;99.90
13433;DHT22;6789;47.678;9.158;2023-04-03T18:28:04;5.70;99.90
13433;DHT22;6789;47.678;9.158;2023-04-03T18:32:57;5.60;99.90
13433;DHT22;6789;47.678;9.158;2023-04-03T18:37:49;5.60;99.90
13433;DHT22;6789;47.678;9.158;2023-04-03T18:42:41;5.60;99.90
13433;DHT22;6789;47.678;9.158;2023-04-03T18:47:48;5.50;99.90
13433;DHT22;6789;47.678;9.158;2023-04-03T18:52:40;5.50;99.90
13433;DHT22;6789;47.678;9.158;2023-04-03T18:57:40;5.50;99.90
13433;DHT22;6789;47.678;9.158;2023-04-03T19:02:32;5.40;99.90
13433;DHT22;6789;47.678;9.158;2023-04-03T19:07:25;5.40;99.90
13433;DHT22;6789;47.678;9.158;2023-04-03T19:12:18;5.40;99.90
13433;DHT22;6789;47.678;9.158;2023-04-03T19:17:11;5.30;99.90
13433;DHT22;6789;47.678;9.158;2023-04-03T19:22:05;5.30;99.90
13433;DHT22;6789;47.678;9.158;2023-04-03T19:27:12;5.30;99.90
13433;DHT22;6789;47.678;9.158;2023-04-03T19:32:05;5.20;99.90
13433;DHT22;6789;47.678;9.158;2023-04-03T19:37:11;5.10;99.90
13433;DHT22;6789;47.678;9.158;2023-04-03T19:42:04;5.00;99.90
13433;DHT22;6789;47.678;9.158;2023-04-03T19:46:58;5.00;99.90
13433;DHT22;6789;47.678;9.158;2023-04-03T19:51:51;4.90;99.90
13433;DHT22;6789;47.678;9.158;2023-04-03T19:56:46;4.90;99.90
13433;DHT22;6789;47.678;9.158;2023-04-03T20:01:38;4.80;99.90
13433;DHT22;6789;47.678;9.158;2023-04-03T20:06:35;4.80;99.90
13433;DHT22;6789;47.678;9.158;2023-04-03T20:11:27;4.80;99.90
13433;DHT22;6789;47.678;9.158;2023-04-03T20:16:20;4.80;99.90
13433;DHT22;6789;47.678;9.158;2023-04-03T20:21:16;4.70;99.90
13433;DHT22;6789;47.678;9.158;2023-04-03T20:26:10;4.70;99.90
13433;DHT22;6789;47.678;9.158;2023-04-03T20:31:15;4.60;99.90
13433;DHT22;6789;47.678;9.158;2023-04-03T20:36:09;4.50;99.90
13433;DHT22;6789;47.678;9.158;2023-04-03T20:41:11;4.40;99.90
13433;DHT22;6789;47.678;9.158;2023-04-03T20:46:07;4.40;99.90
13433;DHT22;6789;47.678;9.158;2023-04-03T20:51:16;4.30;99.90
13433;DHT22;6789;47.678;9.158;2023-04-03T20:56:11;4.30;99.90
13433;DHT22;6789;47.678;9.158;2023-04-03T21:01:03;4.10;99.90
13433;DHT22;6789;47.678;9.158;2023-04-03T21:23:12;4.00;99.90
13433;DHT22;6789;47.678;9.158;2023-04-03T21:28:19;3.90;99.90
13433;DHT22;6789;47.678;9.158;2023-04-03T21:33:12;3.90;99.90
13433;DHT22;6789;47.678;9.158;2023-04-03T21:38:04;3.90;99.90
13433;DHT22;6789;47.678;9.158;2023-04-03T21:42:56;3.80;99.90
13433;DHT22;6789;47.678;9.158;2023-04-03T21:47:49;3.70;99.90
13433;DHT22;6789;47.678;9.158;2023-04-03T21:52:42;3.70;99.90
13433;DHT22;6789;47.678;9.158;2023-04-03T21:57:38;3.70;99.90
13433;DHT22;6789;47.678;9.158;2023-04-03T22:02:32;3.70;99.90
13433;DHT22;6789;47.678;9.158;2023-04-03T22:07:28;3.70;99.90
13433;DHT22;6789;47.678;9.158;2023-04-03T22:12:58;3.60;99.90
13433;DHT22;6789;47.678;9.158;2023-04-03T22:17:52;3.60;99.90
13433;DHT22;6789;47.678;9.158;2023-04-03T22:22:52;3.50;99.90
13433;DHT22;6789;47.678;9.158;2023-04-03T22:27:44;3.50;99.90
13433;DHT22;6789;47.678;9.158;2023-04-03T22:32:37;3.40;99.90
13433;DHT22;6789;47.678;9.158;2023-04-03T22:37:32;3.40;99.90
13433;DHT22;6789;47.678;9.158;2023-04-03T22:42:24;3.20;99.90
13433;DHT22;6789;47.678;9.158;2023-04-03T22:47:16;3.10;99.90
13433;DHT22;6789;47.678;9.158;2023-04-03T22:52:08;3.10;99.90
13433;DHT22;6789;47.678;9.158;2023-04-03T22:57:29;3.10;99.90
13433;DHT22;6789;47.678;9.158;2023-04-03T23:02:41;3.00;99.90
13433;DHT22;6789;47.678;9.158;2023-04-03T23:08:25;3.00;99.90
13433;DHT22;6789;47.678;9.158;2023-04-03T23:13:31;2.90;99.90
13433;DHT22;6789;47.678;9.158;2023-04-03T23:18:43;2.80;99.90
13433;DHT22;6789;47.678;9.158;2023-04-03T23:23:35;2.80;99.90
13433;DHT22;6789;47.678;9.158;2023-04-03T23:28:45;2.70;99.90
13433;DHT22;6789;47.678;9.158;2023-04-03T23:33:37;2.70;99.90
13433;DHT22;6789;47.678;9.158;2023-04-03T23:38:30;2.60;99.90
13433;DHT22;6789;47.678;9.158;2023-04-03T23:43:22;2.50;99.90
13433;DHT22;6789;47.678;9.158;2023-04-03T23:48:14;2.50;99.90
13433;DHT22;6789;47.678;9.158;2023-04-03T23:53:22;2.40;99.90
13433;DHT22;6789;47.678;9.158;2023-04-03T23:58:16;2.30;99.90
